Time;durP1;ratioP1;P1;durP2;ratioP2;P2;SDS_P1;SDS_P2;PMS_P1;PMS_P2;Temp;Humidity;BMP_temperature;BMP_pressure;BME280_temperature;BME280_humidity;BME280_pressure;Samples;Min_cycle;Max_cycle;Signal;HPM_P1;HPM_P2
2022/08/07 00:01:56;;;;;;;14.70;13.20;;;14.00;99.90;;;;;;5052764;28;20447;-71
2022/08/07 00:05:34;;;;;;;14.20;12.80;;;14.00;99.90;;;;;;5057709;28;20481;-71
2022/08/07 00:08:51;;;;;;;14.83;13.43;;;14.00;99.90;;;;;;5054434;28;20471;-72
2022/08/07 00:11:46;;;;;;;15.13;13.73;;;13.90;99.90;;;;;;5055715;28;20458;-72
2022/08/07 00:14:41;;;;;;;14.03;12.73;;;13.80;99.90;;;;;;5055791;28;20462;-72
2022/08/07 00:17:57;;;;;;;15.63;14.03;;;13.90;99.90;;;;;;5056196;28;20464;-72
2022/08/07 00:20:50;;;;;;;14.50;13.10;;;13.80;99.90;;;;;;5054086;28;20822;-72
2022/08/07 00:23:55;;;;;;;13.70;12.50;;;13.80;99.90;;;;;;5054588;28;20574;-71
2022/08/07 00:27:02;;;;;;;14.83;13.47;;;13.80;99.90;;;;;;5055276;28;20508;-72
2022/08/07 00:30:14;;;;;;;13.50;12.20;;;13.70;99.90;;;;;;5055833;28;20473;-72
2022/08/07 00:33:27;;;;;;;13.87;12.53;;;13.70;99.90;;;;;;5060965;28;20442;-72
2022/08/07 00:36:35;;;;;;;14.10;12.90;;;13.60;99.90;;;;;;5060314;28;20884;-70
2022/08/07 00:39:30;;;;;;;14.27;12.93;;;13.60;99.90;;;;;;5062005;28;21063;-70
2022/08/07 00:42:27;;;;;;;13.70;12.40;;;13.60;99.90;;;;;;5063082;28;20486;-70
2022/08/07 00:45:35;;;;;;;13.50;12.20;;;13.60;99.90;;;;;;5059557;28;20898;-70
2022/08/07 00:48:43;;;;;;;14.90;13.17;;;13.50;99.90;;;;;;5064593;28;20465;-70
2022/08/07 00:51:38;;;;;;;13.90;12.50;;;13.40;99.90;;;;;;5062129;28;20503;-70
2022/08/07 00:54:49;;;;;;;13.83;12.53;;;13.40;99.90;;;;;;5058307;28;20532;-70
2022/08/07 00:57:53;;;;;;;13.10;11.80;;;13.40;99.90;;;;;;5058464;28;20455;-70
2022/08/07 01:00:44;;;;;;;13.57;12.30;;;13.40;99.90;;;;;;5059051;28;20456;-70
2022/08/07 01:07:26;;;;;;;12.97;11.77;;;13.30;99.90;;;;;;5041075;28;20477;-70
2022/08/07 01:10:41;;;;;;;12.90;11.70;;;13.30;99.90;;;;;;5058443;28;21118;-70
2022/08/07 01:13:51;;;;;;;12.80;11.67;;;13.30;99.90;;;;;;5058749;28;20511;-70
2022/08/07 01:17:04;;;;;;;13.20;11.90;;;13.20;99.90;;;;;;5055996;28;21119;-70
2022/08/07 01:20:15;;;;;;;12.77;11.47;;;13.20;99.90;;;;;;5058318;28;20602;-70
2022/08/07 01:23:20;;;;;;;14.10;12.60;;;13.20;99.90;;;;;;5062238;28;20465;-70
2022/08/07 01:26:33;;;;;;;13.27;11.83;;;13.20;99.90;;;;;;5054404;28;20565;-70
2022/08/07 01:29:32;;;;;;;13.20;12.00;;;13.10;99.90;;;;;;5050814;28;20571;-70
2022/08/07 01:32:21;;;;;;;13.50;12.20;;;13.10;99.90;;;;;;5060398;28;20457;-70
2022/08/07 01:35:31;;;;;;;12.60;11.40;;;13.00;99.90;;;;;;5054242;28;20477;-70
2022/08/07 01:38:44;;;;;;;12.27;11.17;;;13.00;99.90;;;;;;5042411;28;20497;-70
2022/08/07 01:41:50;;;;;;;13.03;11.83;;;12.90;99.90;;;;;;5057887;28;20450;-70
2022/08/07 01:45:25;;;;;;;11.47;10.30;;;12.90;99.90;;;;;;5053872;28;21036;-70
2022/08/07 01:48:28;;;;;;;14.13;11.47;;;12.90;99.90;;;;;;5053789;28;21000;-70
2022/08/07 01:51:24;;;;;;;12.40;11.30;;;12.80;99.90;;;;;;5054714;28;20448;-70
2022/08/07 01:54:38;;;;;;;13.20;12.00;;;12.80;99.90;;;;;;5053580;28;20554;-70
2022/08/07 01:57:39;;;;;;;12.17;10.97;;;12.90;99.90;;;;;;5054234;28;20486;-70
2022/08/07 02:00:58;;;;;;;12.50;11.30;;;12.90;99.90;;;;;;5056175;28;20740;-70
2022/08/07 02:04:11;;;;;;;12.00;11.00;;;12.80;99.90;;;;;;5053021;28;20481;-69
2022/08/07 02:07:39;;;;;;;14.20;12.73;;;12.80;99.90;;;;;;5053946;28;20824;-70
2022/08/07 02:10:57;;;;;;;12.67;11.57;;;12.80;99.90;;;;;;5056378;28;20479;-70
2022/08/07 02:13:53;;;;;;;14.23;12.73;;;12.70;99.90;;;;;;5061926;28;20465;-70
2022/08/07 02:16:59;;;;;;;12.63;11.47;;;12.70;99.90;;;;;;5057687;28;20536;-70
2022/08/07 02:20:16;;;;;;;14.17;12.60;;;12.70;99.90;;;;;;5054591;28;20540;-70
2022/08/07 02:23:32;;;;;;;13.07;11.97;;;12.70;99.90;;;;;;5055086;28;20458;-70
2022/08/07 02:27:02;;;;;;;14.27;13.00;;;12.60;99.90;;;;;;5053387;28;20551;-70
2022/08/07 02:30:07;;;;;;;12.57;11.47;;;12.60;99.90;;;;;;5053934;28;20481;-70
2022/08/07 02:33:11;;;;;;;13.60;12.10;;;12.60;99.90;;;;;;5051197;28;20834;-70
2022/08/07 02:36:22;;;;;;;13.17;12.07;;;12.60;99.90;;;;;;5052288;28;20473;-70
2022/08/07 02:39:32;;;;;;;14.10;12.83;;;12.60;99.90;;;;;;5055469;28;20482;-72
2022/08/07 02:43:10;;;;;;;13.40;12.20;;;12.50;99.90;;;;;;5057038;28;20452;-69
2022/08/07 02:46:39;;;;;;;14.77;13.37;;;12.50;99.90;;;;;;5055550;28;20477;-73
2022/08/07 02:49:41;;;;;;;13.97;12.70;;;12.50;99.90;;;;;;5056927;28;20565;-72
2022/08/07 02:53:03;;;;;;;14.57;13.27;;;12.40;99.90;;;;;;5056334;28;20584;-72
2022/08/07 02:59:23;;;;;;;13.57;12.33;;;12.40;99.90;;;;;;5055085;28;20508;-72
2022/08/07 03:02:23;;;;;;;13.97;12.57;;;12.40;99.90;;;;;;5059330;28;21063;-72
2022/08/07 03:05:24;;;;;;;14.07;12.67;;;12.30;99.90;;;;;;5054715;28;20636;-72
2022/08/07 03:08:24;;;;;;;13.23;11.77;;;12.40;99.90;;;;;;5055829;28;20604;-71
2022/08/07 03:11:25;;;;;;;12.97;11.80;;;12.30;99.90;;;;;;5056290;28;20453;-70
2022/08/07 03:14:34;;;;;;;13.17;11.87;;;12.30;99.90;;;;;;5055581;28;20465;-73
2022/08/07 03:17:44;;;;;;;;;;;;;;;;;;;;;
2022/08/07 03:20:54;;;;;;;13.03;11.80;;;12.30;99.90;;;;;;5056660;28;20453;-70
2022/08/07 03:23:59;;;;;;;12.83;11.67;;;12.20;99.90;;;;;;5055982;28;20493;-70
2022/08/07 03:27:14;;;;;;;13.07;11.87;;;12.20;99.90;;;;;;5056764;28;20487;-70
2022/08/07 03:30:42;;;;;;;13.23;12.07;;;12.20;99.90;;;;;;5054537;28;20453;-70
2022/08/07 03:34:03;;;;;;;13.10;12.00;;;12.20;99.90;;;;;;5053225;28;20458;-70
2022/08/07 03:37:15;;;;;;;13.17;11.87;;;12.10;99.90;;;;;;5058130;28;20964;-70
2022/08/07 03:40:27;;;;;;;13.30;12.00;;;12.10;99.90;;;;;;5055232;28;20477;-70
2022/08/07 03:43:45;;;;;;;13.47;12.17;;;12.10;99.90;;;;;;5052946;28;20460;-70
2022/08/07 03:46:46;;;;;;;12.40;11.30;;;12.10;99.90;;;;;;5051349;28;21000;-70
2022/08/07 03:50:08;;;;;;;13.97;12.50;;;12.10;99.90;;;;;;5051660;28;20565;-70
2022/08/07 03:53:08;;;;;;;12.20;10.83;;;12.00;99.90;;;;;;5051864;28;20465;-70
2022/08/07 03:56:16;;;;;;;12.23;11.13;;;12.00;99.90;;;;;;5054015;28;20677;-70
2022/08/07 03:59:38;;;;;;;12.67;11.57;;;12.00;99.90;;;;;;5055992;28;20829;-70
2022/08/07 04:03:05;;;;;;;12.37;11.27;;;12.00;99.90;;;;;;5053376;28;20459;-70
2022/08/07 04:05:57;;;;;;;12.03;10.93;;;12.00;99.90;;;;;;5052571;28;20477;-70
2022/08/07 04:12:19;;;;;;;13.07;11.87;;;11.90;99.90;;;;;;5050753;28;20543;-70
2022/08/07 04:15:18;;;;;;;12.50;11.30;;;11.90;99.90;;;;;;5056995;28;20719;-70
2022/08/07 04:18:15;;;;;;;12.67;11.47;;;11.90;99.90;;;;;;5057263;28;20608;-70
2022/08/07 04:21:33;;;;;;;11.40;10.40;;;11.90;99.90;;;;;;5059103;28;20453;-73
2022/08/07 04:24:33;;;;;;;11.20;10.20;;;11.90;99.90;;;;;;5052035;28;20656;-73
2022/08/07 04:27:46;;;;;;;12.10;11.00;;;11.90;99.90;;;;;;5056428;28;20470;-71
2022/08/07 04:30:55;;;;;;;13.57;12.23;;;11.90;99.90;;;;;;5049277;28;20529;-70
2022/08/07 04:33:59;;;;;;;11.70;10.63;;;11.90;99.90;;;;;;5052390;28;20447;-71
2022/08/07 04:37:01;;;;;;;12.10;10.90;;;11.90;99.90;;;;;;5055519;28;20473;-71
2022/08/07 04:39:55;;;;;;;11.70;10.70;;;11.90;99.90;;;;;;5057003;28;20482;-71
2022/08/07 04:42:51;;;;;;;11.90;10.70;;;11.90;99.90;;;;;;5054028;28;20446;-71
2022/08/07 04:45:55;;;;;;;11.70;10.70;;;11.90;99.90;;;;;;5055076;28;20503;-71
2022/08/07 04:49:02;;;;;;;10.87;9.77;;;12.00;99.90;;;;;;5056561;28;20509;-70
2022/08/07 04:52:28;;;;;;;11.53;10.43;;;12.00;99.90;;;;;;5053716;28;20481;-71
2022/08/07 04:59:17;;;;;;;11.40;10.30;;;12.10;99.90;;;;;;5049877;28;20489;-71
2022/08/07 05:02:30;;;;;;;10.97;9.97;;;12.10;99.90;;;;;;5050032;28;20550;-72
2022/08/07 05:05:40;;;;;;;11.10;10.00;;;12.10;99.90;;;;;;5050711;28;20502;-73
2022/08/07 05:09:07;;;;;;;10.27;9.17;;;12.20;99.90;;;;;;5051215;28;20854;-70
2022/08/07 05:12:06;;;;;;;10.60;9.50;;;12.20;99.90;;;;;;5048502;28;20461;-71
2022/08/07 05:15:19;;;;;;;11.33;10.23;;;12.20;99.90;;;;;;5048729;28;20488;-70
2022/08/07 05:18:29;;;;;;;;;;;;;;;;;;;;;
2022/08/07 05:21:30;;;;;;;11.17;9.83;;;12.30;99.90;;;;;;5050172;28;20442;-70
2022/08/07 05:24:49;;;;;;;10.50;9.40;;;12.40;99.90;;;;;;5051426;28;20943;-70
2022/08/07 05:27:58;;;;;;;9.87;8.97;;;12.50;99.90;;;;;;5053052;28;20989;-70
2022/08/07 05:31:12;;;;;;;11.13;10.03;;;12.50;99.90;;;;;;5059217;28;20946;-70
2022/08/07 05:34:07;;;;;;;10.77;9.67;;;12.60;99.90;;;;;;5054596;28;21061;-70
2022/08/07 05:37:04;;;;;;;10.07;9.07;;;12.60;99.90;;;;;;5057371;28;20461;-70
2022/08/07 05:40:22;;;;;;;11.37;10.27;;;12.70;99.90;;;;;;5060442;28;20482;-72
2022/08/07 05:43:20;;;;;;;11.80;10.60;;;12.80;99.90;;;;;;5056958;28;20453;-72
2022/08/07 05:46:53;;;;;;;12.73;10.93;;;12.90;99.90;;;;;;5057432;28;20489;-70
2022/08/07 05:50:33;;;;;;;13.80;11.40;;;13.10;99.90;;;;;;5056175;28;20472;-70
2022/08/07 05:54:02;;;;;;;12.00;10.80;;;13.10;99.90;;;;;;5056054;28;20453;-71
2022/08/07 05:57:19;;;;;;;14.37;12.27;;;13.30;99.90;;;;;;5055788;28;20470;-71
2022/08/07 06:00:09;;;;;;;13.10;11.80;;;13.40;99.90;;;;;;5052263;28;21181;-71
2022/08/07 06:03:06;;;;;;;13.90;12.60;;;13.50;99.90;;;;;;5055076;28;20458;-71
2022/08/07 06:06:02;;;;;;;13.20;11.30;;;13.60;99.90;;;;;;5040288;28;20515;-72
2022/08/07 06:08:58;;;;;;;14.30;12.80;;;13.70;99.90;;;;;;5052053;28;20913;-72
2022/08/07 06:11:46;;;;;;;12.83;11.53;;;13.80;99.90;;;;;;5055870;28;20487;-71
2022/08/07 06:14:38;;;;;;;13.63;12.23;;;13.90;99.90;;;;;;5049519;28;20469;-71
2022/08/07 06:17:49;;;;;;;13.10;11.80;;;13.90;99.90;;;;;;5047392;28;21210;-71
2022/08/07 06:20:44;;;;;;;13.80;12.40;;;14.00;99.90;;;;;;5058147;28;20473;-71
2022/08/07 06:23:53;;;;;;;14.13;12.67;;;14.10;99.90;;;;;;5051316;28;20446;-71
2022/08/07 06:27:03;;;;;;;13.57;11.00;;;14.20;99.90;;;;;;5055291;28;20846;-71
2022/08/07 06:29:52;;;;;;;12.77;11.60;;;14.30;99.90;;;;;;5059426;28;20470;-71
2022/08/07 06:32:42;;;;;;;12.03;10.43;;;14.40;99.90;;;;;;5056145;28;20457;-71
2022/08/07 06:35:35;;;;;;;11.40;10.20;;;14.50;99.90;;;;;;5058305;28;20470;-73
2022/08/07 06:38:33;;;;;;;12.70;8.63;;;14.60;99.90;;;;;;5058119;28;20472;-72
2022/08/07 06:41:26;;;;;;;8.80;8.00;;;14.70;99.90;;;;;;5055717;28;20494;-73
2022/08/07 06:44:37;;;;;;;9.80;7.93;;;14.80;99.90;;;;;;5054359;28;20490;-73
2022/08/07 06:47:27;;;;;;;7.57;6.77;;;14.90;99.90;;;;;;5053692;28;20482;-71
2022/08/07 06:50:38;;;;;;;8.10;6.97;;;15.00;99.90;;;;;;5054695;28;20549;-73
2022/08/07 06:53:31;;;;;;;9.30;6.83;;;15.10;99.90;;;;;;5060481;28;20867;-71
2022/08/07 06:56:42;;;;;;;6.67;6.07;;;15.20;99.90;;;;;;5057387;28;20474;-72
2022/08/07 06:59:43;;;;;;;7.00;6.30;;;15.30;99.90;;;;;;5055761;28;20921;-72
2022/08/07 07:02:55;;;;;;;5.90;5.30;;;15.40;99.90;;;;;;5054725;28;20972;-72
2022/08/07 07:05:48;;;;;;;5.33;4.83;;;15.40;99.90;;;;;;5055462;28;20473;-71
2022/08/07 07:08:53;;;;;;;5.80;4.97;;;15.50;99.90;;;;;;5055927;28;20873;-71
2022/08/07 07:11:48;;;;;;;7.77;5.63;;;15.70;99.90;;;;;;5054420;28;20497;-71
2022/08/07 07:15:01;;;;;;;6.20;5.43;;;15.70;99.90;;;;;;5051493;28;20485;-73
2022/08/07 07:18:03;;;;;;;6.50;4.90;;;15.80;99.90;;;;;;5053599;28;20471;-72
2022/08/07 07:20:56;;;;;;;6.17;5.10;;;15.90;99.90;;;;;;5052856;28;20533;-72
2022/08/07 07:23:44;;;;;;;7.07;5.07;;;16.00;99.90;;;;;;5052633;28;20517;-72
2022/08/07 07:26:56;;;;;;;5.50;5.00;;;16.00;99.90;;;;;;5058640;28;20483;-73
2022/08/07 07:29:49;;;;;;;6.53;5.83;;;16.10;99.90;;;;;;5055827;28;20527;-72
2022/08/07 07:33:01;;;;;;;5.63;5.13;;;16.20;99.90;;;;;;5054539;28;20458;-72
2022/08/07 07:35:52;;;;;;;5.23;4.73;;;16.30;99.90;;;;;;5052234;28;20557;-71
2022/08/07 07:38:52;;;;;;;5.30;4.80;;;16.30;99.90;;;;;;5053222;28;20477;-72
2022/08/07 07:41:44;;;;;;;4.87;4.47;;;16.40;99.90;;;;;;5048448;28;21011;-72
2022/08/07 07:44:55;;;;;;;5.77;5.00;;;16.50;99.90;;;;;;5055957;28;20557;-73
2022/08/07 07:47:46;;;;;;;5.10;4.60;;;16.60;99.90;;;;;;5058568;28;20500;-72
2022/08/07 07:50:42;;;;;;;5.30;4.80;;;16.60;99.90;;;;;;5057339;28;20607;-72
2022/08/07 07:53:34;;;;;;;5.10;4.60;;;16.70;99.90;;;;;;5056905;28;20493;-72
2022/08/07 07:56:24;;;;;;;5.20;4.70;;;16.80;99.90;;;;;;5058568;28;21064;-72
2022/08/07 07:59:19;;;;;;;5.13;4.73;;;16.90;99.90;;;;;;5059268;28;21063;-72
2022/08/07 08:02:30;;;;;;;4.80;4.40;;;17.00;99.90;;;;;;5058269;28;20450;-72
2022/08/07 08:05:24;;;;;;;4.90;4.50;;;17.00;99.90;;;;;;5058715;28;20894;-71
2022/08/07 08:08:32;;;;;;;4.73;4.30;;;17.00;99.90;;;;;;5059857;28;20518;-71
2022/08/07 08:11:26;;;;;;;5.13;4.47;;;17.10;99.90;;;;;;5061010;28;20551;-71
2022/08/07 08:14:35;;;;;;;4.83;4.10;;;17.10;99.90;;;;;;5059560;28;20989;-71
2022/08/07 08:17:25;;;;;;;4.93;4.43;;;17.20;99.90;;;;;;5057221;28;20881;-73
2022/08/07 08:20:35;;;;;;;4.57;4.17;;;17.20;99.90;;;;;;5056633;28;20962;-72
2022/08/07 08:29:50;;;;;;;7.50;5.00;;;17.40;99.90;;;;;;5059047;28;20470;-72
2022/08/07 08:32:47;;;;;;;4.73;4.33;;;17.50;99.90;;;;;;5055170;28;20822;-72
2022/08/07 08:35:39;;;;;;;5.10;4.57;;;17.60;99.90;;;;;;5056976;28;20538;-71
2022/08/07 08:38:40;;;;;;;5.47;4.97;;;17.60;99.90;;;;;;5055931;28;20477;-72
2022/08/07 08:41:43;;;;;;;4.77;4.37;;;17.70;99.90;;;;;;5058879;28;20535;-72
2022/08/07 08:44:55;;;;;;;5.00;4.60;;;17.80;99.90;;;;;;5058297;28;20470;-72
2022/08/07 08:47:55;;;;;;;4.80;4.40;;;17.80;99.90;;;;;;5053132;28;20474;-72
2022/08/07 08:50:50;;;;;;;5.90;4.50;;;17.90;99.90;;;;;;5053129;28;20540;-72
2022/08/07 08:53:47;;;;;;;5.90;4.90;;;18.00;99.90;;;;;;5053278;28;20966;-72
2022/08/07 08:56:40;;;;;;;5.23;4.13;;;18.00;99.90;;;;;;5055089;28;20487;-72
2022/08/07 08:59:44;;;;;;;4.90;4.50;;;18.20;99.90;;;;;;5057838;28;20478;-72
2022/08/07 09:02:44;;;;;;;5.20;4.80;;;18.20;99.90;;;;;;5055590;28;21790;-72
2022/08/07 09:05:46;;;;;;;4.73;4.33;;;18.20;99.90;;;;;;5055716;28;20564;-71
2022/08/07 09:08:43;;;;;;;5.70;5.20;;;18.20;99.90;;;;;;5059790;28;20539;-72
2022/08/07 09:11:40;;;;;;;5.60;4.90;;;18.30;99.90;;;;;;5061387;28;20455;-72
2022/08/07 09:14:56;;;;;;;4.27;3.93;;;18.30;99.90;;;;;;5058119;28;21058;-72
2022/08/07 09:18:01;;;;;;;4.67;4.27;;;18.40;99.90;;;;;;5060489;28;20469;-72
2022/08/07 09:21:05;;;;;;;10.37;4.63;;;18.40;99.90;;;;;;5057974;28;20481;-72
2022/08/07 09:24:07;;;;;;;4.73;4.33;;;18.50;99.90;;;;;;5059740;28;20445;-72
2022/08/07 09:27:30;;;;;;;5.00;4.60;;;18.50;99.90;;;;;;5054173;28;20455;-72
2022/08/07 09:30:51;;;;;;;5.47;4.60;;;18.60;99.90;;;;;;5046979;28;20561;-71
2022/08/07 09:33:56;;;;;;;5.20;4.70;;;18.70;99.90;;;;;;5054673;28;20456;-71
2022/08/07 09:36:55;;;;;;;5.40;4.90;;;18.80;99.90;;;;;;5054748;28;20535;-71
2022/08/07 09:39:54;;;;;;;5.63;5.13;;;18.80;99.90;;;;;;5053564;28;20634;-72
2022/08/07 09:42:54;;;;;;;4.90;4.50;;;18.90;99.90;;;;;;5049621;28;20449;-72
2022/08/07 09:45:47;;;;;;;5.10;4.60;;;18.90;99.90;;;;;;5054184;28;20485;-72
2022/08/07 09:49:06;;;;;;;4.80;4.40;;;19.00;99.90;;;;;;5056727;28;20485;-73
2022/08/07 09:52:22;;;;;;;4.90;4.50;;;19.00;99.90;;;;;;5057462;28;20469;-72
2022/08/07 09:55:29;;;;;;;4.73;4.33;;;19.00;99.90;;;;;;5052310;28;20556;-71
2022/08/07 09:59:19;;;;;;;5.03;4.63;;;19.10;99.90;;;;;;5055851;28;20461;-71
2022/08/07 10:02:32;;;;;;;5.33;4.83;;;19.20;99.90;;;;;;4991120;28;20632;-69
2022/08/07 10:05:57;;;;;;;5.03;4.63;;;19.30;99.90;;;;;;4991808;28;20479;-69
2022/08/07 10:09:13;;;;;;;6.10;4.97;;;19.40;99.90;;;;;;4976797;28;20488;-70
2022/08/07 10:12:15;;;;;;;4.70;4.30;;;19.40;99.90;;;;;;5057800;28;20667;-69
2022/08/07 10:15:43;;;;;;;4.97;4.57;;;19.50;99.90;;;;;;5050998;28;20481;-70
2022/08/07 10:18:51;;;;;;;4.40;4.10;;;19.60;99.90;;;;;;5053482;28;20566;-72
2022/08/07 10:21:52;;;;;;;4.87;4.47;;;19.70;99.90;;;;;;5055949;28;20460;-71
2022/08/07 10:25:13;;;;;;;4.83;4.33;;;19.80;99.90;;;;;;5050113;28;21167;-71
2022/08/07 10:28:40;;;;;;;4.47;4.17;;;19.90;99.90;;;;;;5052116;28;20485;-72
2022/08/07 10:32:05;;;;;;;5.07;4.20;;;20.10;99.90;;;;;;5052351;28;20539;-72
2022/08/07 10:35:25;;;;;;;7.73;7.00;;;20.20;99.90;;;;;;5053459;28;20483;-71
2022/08/07 10:38:48;;;;;;;8.13;6.23;;;20.20;99.90;;;;;;5049454;28;20880;-71
2022/08/07 10:41:44;;;;;;;5.17;4.77;;;20.20;99.90;;;;;;5047431;28;20465;-71
2022/08/07 10:44:52;;;;;;;4.83;4.23;;;20.20;99.90;;;;;;5052299;28;20481;-71
2022/08/07 10:47:53;;;;;;;4.70;4.30;;;20.20;99.90;;;;;;5058656;28;20464;-71
2022/08/07 10:50:54;;;;;;;4.60;4.23;;;20.20;99.90;;;;;;5058412;28;20453;-71
2022/08/07 10:53:50;;;;;;;4.90;4.50;;;20.20;99.90;;;;;;5056130;28;20546;-72
2022/08/07 10:56:50;;;;;;;5.10;4.70;;;20.20;99.90;;;;;;5057344;28;20551;-70
2022/08/07 10:59:57;;;;;;;4.93;4.43;;;20.20;99.90;;;;;;5059120;28;20478;-70
2022/08/07 11:02:58;;;;;;;4.73;4.30;;;20.20;99.90;;;;;;5059979;28;20449;-70
2022/08/07 11:05:54;;;;;;;4.90;4.50;;;20.20;99.90;;;;;;5057758;28;20517;-70
2022/08/07 11:08:52;;;;;;;4.53;4.13;;;20.20;99.90;;;;;;5058564;28;20520;-71
2022/08/07 11:11:47;;;;;;;3.93;3.63;;;20.30;99.90;;;;;;5057894;28;20446;-71
2022/08/07 11:14:41;;;;;;;4.60;4.10;;;20.30;99.90;;;;;;5055887;28;20620;-70
2022/08/07 11:17:58;;;;;;;4.27;3.53;;;20.40;99.90;;;;;;5059139;28;20456;-70
2022/08/07 11:21:04;;;;;;;5.57;4.00;;;20.40;99.90;;;;;;5057537;28;20853;-70
2022/08/07 11:23:57;;;;;;;4.13;3.50;;;20.60;99.90;;;;;;5055418;28;20538;-72
2022/08/07 11:26:53;;;;;;;4.27;3.90;;;20.70;99.90;;;;;;5050920;28;20478;-71
2022/08/07 11:29:50;;;;;;;4.33;3.93;;;20.70;99.90;;;;;;5050088;28;20677;-71
2022/08/07 11:33:06;;;;;;;4.80;3.60;;;20.80;99.90;;;;;;5053168;28;20739;-71
2022/08/07 11:36:14;;;;;;;3.60;3.37;;;20.80;99.90;;;;;;5057525;28;20988;-72
2022/08/07 11:39:29;;;;;;;4.47;4.07;;;20.90;99.90;;;;;;5055594;28;20554;-71
2022/08/07 11:42:46;;;;;;;3.83;3.53;;;21.00;99.90;;;;;;5057008;28;20954;-73
2022/08/07 11:45:53;;;;;;;3.73;3.33;;;21.00;99.90;;;;;;5056106;28;20549;-70
2022/08/07 11:49:12;;;;;;;4.13;3.83;;;21.20;99.90;;;;;;5053865;28;20501;-72
2022/08/07 11:52:35;;;;;;;3.73;3.43;;;21.40;99.90;;;;;;5056491;28;20449;-72
2022/08/07 11:55:37;;;;;;;3.50;3.20;;;21.50;99.90;;;;;;5056641;28;20492;-72
2022/08/07 11:58:56;;;;;;;4.23;3.93;;;21.60;99.90;;;;;;5058169;28;20474;-71
2022/08/07 12:01:53;;;;;;;3.93;3.50;;;21.60;99.90;;;;;;5054342;28;20481;-72
2022/08/07 12:05:04;;;;;;;4.70;4.17;;;21.60;99.90;;;;;;5053211;28;20542;-72
2022/08/07 12:08:08;;;;;;;3.90;3.60;;;21.60;99.90;;;;;;5051992;28;20497;-72
2022/08/07 12:11:19;;;;;;;3.53;3.23;;;21.60;99.90;;;;;;5045172;28;20453;-73
2022/08/07 12:14:15;;;;;;;3.90;3.50;;;21.70;99.90;;;;;;5048546;28;20450;-71
2022/08/07 12:17:11;;;;;;;5.50;4.07;;;21.90;99.90;;;;;;5045324;28;20610;-72
2022/08/07 12:20:19;;;;;;;3.40;3.13;;;22.10;99.90;;;;;;5052347;28;20490;-71
2022/08/07 12:23:37;;;;;;;4.53;4.13;;;22.20;99.90;;;;;;5045837;28;20465;-71
2022/08/07 12:26:53;;;;;;;4.50;4.20;;;22.20;99.90;;;;;;5044366;28;20477;-71
2022/08/07 12:29:46;;;;;;;3.93;3.67;;;22.20;99.90;;;;;;5053072;28;20622;-72
2022/08/07 12:32:43;;;;;;;3.50;3.20;;;22.30;99.90;;;;;;5057526;28;20458;-72
2022/08/07 12:35:39;;;;;;;4.17;3.87;;;22.30;99.90;;;;;;5057871;28;20489;-72
2022/08/07 12:38:35;;;;;;;5.80;3.80;;;22.30;99.90;;;;;;5054808;28;20465;-71
2022/08/07 12:41:39;;;;;;;4.20;3.80;;;22.30;99.90;;;;;;5057301;28;20798;-72
2022/08/07 12:44:40;;;;;;;3.80;3.60;;;22.40;99.90;;;;;;5061764;28;20659;-72
2022/08/07 12:47:38;;;;;;;4.03;3.73;;;22.70;99.90;;;;;;5059736;28;20468;-72
2022/08/07 12:50:34;;;;;;;3.53;3.30;;;22.80;99.90;;;;;;5058049;28;20488;-72
2022/08/07 12:53:42;;;;;;;4.00;3.70;;;22.80;99.90;;;;;;5054605;28;20534;-71
2022/08/07 12:56:55;;;;;;;3.63;3.40;;;22.90;99.90;;;;;;5052221;28;20485;-72
2022/08/07 12:59:49;;;;;;;3.63;3.33;;;23.00;99.90;;;;;;5055808;28;20506;-72
2022/08/07 13:02:59;;;;;;;4.17;3.87;;;23.00;99.90;;;;;;5059047;28;20454;-72
2022/08/07 13:06:01;;;;;;;3.60;3.30;;;23.00;99.90;;;;;;5037482;28;20572;-71
2022/08/07 13:09:18;;;;;;;3.97;3.67;;;23.00;99.90;;;;;;5053038;28;20899;-72
2022/08/07 13:12:32;;;;;;;4.00;3.70;;;22.80;99.90;;;;;;5053056;28;20468;-73
2022/08/07 13:15:34;;;;;;;4.20;3.90;;;22.90;99.90;;;;;;5051602;28;21632;-72
2022/08/07 13:18:31;;;;;;;3.70;3.40;;;22.90;99.90;;;;;;5054720;28;20469;-72
2022/08/07 13:21:27;;;;;;;4.20;3.90;;;22.90;99.90;;;;;;5061009;28;20465;-71
2022/08/07 13:24:47;;;;;;;4.87;4.00;;;23.00;99.90;;;;;;5057144;28;20481;-71
2022/08/07 13:27:48;;;;;;;4.20;3.80;;;23.10;99.90;;;;;;5048510;28;20849;-72
2022/08/07 13:31:07;;;;;;;4.80;3.90;;;23.30;99.90;;;;;;5052674;28;20844;-72
2022/08/07 13:34:09;;;;;;;4.30;3.90;;;23.60;99.90;;;;;;5051122;28;20454;-71
2022/08/07 13:37:23;;;;;;;3.57;3.37;;;23.70;99.90;;;;;;5056832;28;20460;-72
2022/08/07 13:40:24;;;;;;;3.80;3.60;;;23.80;99.90;;;;;;5046569;28;20492;-71
2022/08/07 13:43:34;;;;;;;4.03;3.73;;;24.00;99.90;;;;;;5053853;28;20596;-72
2022/08/07 13:46:15;;;;;;;3.83;3.53;;;24.00;99.90;;;;;;5049463;28;20493;-71
2022/08/07 13:49:19;;;;;;;4.00;3.40;;;24.00;99.90;;;;;;5042070;28;20500;-72
2022/08/07 13:52:30;;;;;;;3.50;3.30;;;23.90;99.90;;;;;;5062416;28;20543;-72
2022/08/07 13:55:34;;;;;;;3.60;3.40;;;24.10;99.90;;;;;;5074331;28;20481;-71
2022/08/07 14:01:49;;;;;;;4.37;4.00;;;24.50;99.90;;;;;;5054751;28;20456;-72
2022/08/07 14:04:56;;;;;;;4.83;4.50;;;24.60;99.90;;;;;;5046636;28;20466;-72
2022/08/07 14:07:47;;;;;;;4.30;3.90;;;24.50;99.90;;;;;;5058392;28;20486;-71
2022/08/07 14:10:51;;;;;;;3.90;3.70;;;24.40;99.90;;;;;;5061681;28;20488;-71
2022/08/07 14:14:04;;;;;;;4.80;4.07;;;24.40;99.90;;;;;;5068296;28;20469;-72
2022/08/07 14:16:56;;;;;;;4.00;3.70;;;24.40;99.90;;;;;;5065336;28;20483;-72
2022/08/07 14:19:50;;;;;;;4.20;3.90;;;24.60;99.90;;;;;;5064021;28;20615;-71
2022/08/07 14:23:04;;;;;;;4.37;4.03;;;24.80;99.90;;;;;;5059502;28;20514;-70
2022/08/07 14:26:04;;;;;;;4.43;4.00;;;25.10;99.90;;;;;;5060865;28;20564;-71
2022/08/07 14:28:57;;;;;;;3.90;3.60;;;25.30;99.90;;;;;;5057959;28;20496;-71
2022/08/07 14:32:09;;;;;;;3.73;3.47;;;25.70;99.90;;;;;;5059396;28;20451;-71
2022/08/07 14:35:01;;;;;;;3.90;3.60;;;26.10;99.90;;;;;;5063970;28;22988;-70
2022/08/07 14:37:53;;;;;;;3.37;3.17;;;26.30;99.90;;;;;;5053566;28;20602;-71
2022/08/07 14:40:59;;;;;;;4.27;3.97;;;26.60;99.90;;;;;;5047218;28;20516;-71
2022/08/07 14:43:52;;;;;;;3.50;3.20;;;27.10;99.90;;;;;;5058265;28;20458;-72
2022/08/07 14:47:06;;;;;;;3.17;2.97;;;28.20;99.90;;;;;;5062193;28;21711;-71
2022/08/07 14:50:19;;;;;;;3.30;3.10;;;29.30;98.40;;;;;;5091823;28;20541;-72
2022/08/07 14:53:12;;;;;;;3.60;3.30;;;29.70;97.30;;;;;;5083057;28;20454;-71
2022/08/07 14:56:07;;;;;;;3.53;3.33;;;29.80;94.30;;;;;;5087049;28;20935;-71
2022/08/07 14:59:05;;;;;;;3.00;2.80;;;29.60;94.20;;;;;;5089983;28;20490;-71
2022/08/07 15:02:18;;;;;;;3.90;3.30;;;29.30;94.10;;;;;;5086000;28;20461;-71
2022/08/07 15:05:22;;;;;;;3.40;3.20;;;29.10;95.70;;;;;;5055577;28;20473;-72
2022/08/07 15:08:12;;;;;;;3.70;3.40;;;29.00;94.60;;;;;;5044991;28;20477;-71
2022/08/07 15:11:06;;;;;;;3.17;2.97;;;28.70;94.80;;;;;;5061425;28;21071;-71
2022/08/07 15:13:57;;;;;;;3.73;3.53;;;28.50;95.20;;;;;;5035204;28;20865;-71
2022/08/07 15:17:00;;;;;;;3.40;3.20;;;28.40;95.50;;;;;;5052059;28;21006;-72
2022/08/07 15:19:55;;;;;;;3.80;3.50;;;28.00;95.70;;;;;;5059132;28;20832;-72
2022/08/07 15:23:06;;;;;;;3.50;3.20;;;27.90;96.30;;;;;;5062438;28;20992;-71
2022/08/07 15:26:11;;;;;;;3.60;3.30;;;27.50;96.70;;;;;;5054374;28;20545;-71
2022/08/07 15:29:12;;;;;;;4.10;3.80;;;27.10;96.80;;;;;;5047872;28;20478;-73
2022/08/07 15:32:22;;;;;;;4.03;3.33;;;26.80;99.70;;;;;;5036579;28;20470;-71
2022/08/07 15:35:33;;;;;;;3.83;3.53;;;26.60;99.90;;;;;;5061481;28;20960;-72
2022/08/07 15:38:43;;;;;;;3.63;3.43;;;26.60;98.30;;;;;;5057100;28;20480;-70
2022/08/07 15:42:00;;;;;;;3.90;3.50;;;26.60;99.90;;;;;;5040316;28;20560;-70
2022/08/07 15:45:13;;;;;;;3.53;3.23;;;26.50;99.10;;;;;;5054865;28;20509;-70
2022/08/07 15:48:14;;;;;;;3.37;3.07;;;26.40;99.60;;;;;;5052682;28;20474;-71
2022/08/07 15:51:25;;;;;;;4.03;3.70;;;26.30;99.90;;;;;;5047034;28;20842;-71
2022/08/07 15:54:36;;;;;;;3.57;3.37;;;26.20;99.00;;;;;;5061956;28;20473;-70
2022/08/07 15:57:30;;;;;;;4.10;3.70;;;26.00;99.70;;;;;;5066606;28;20470;-71
2022/08/07 16:00:41;;;;;;;3.90;3.60;;;26.00;99.90;;;;;;5063856;28;20460;-70
2022/08/07 16:03:39;;;;;;;5.00;3.77;;;25.90;99.90;;;;;;5065724;28;20846;-70
2022/08/07 16:06:48;;;;;;;4.33;4.03;;;25.80;99.90;;;;;;5050265;28;20560;-71
2022/08/07 16:09:50;;;;;;;4.27;3.87;;;25.70;99.90;;;;;;5059882;28;20473;-71
2022/08/07 16:12:56;;;;;;;4.03;3.77;;;25.60;99.90;;;;;;5061812;28;20496;-72
2022/08/07 16:16:02;;;;;;;4.27;3.97;;;25.50;99.90;;;;;;5046964;28;20477;-71
2022/08/07 16:19:07;;;;;;;4.60;4.20;;;25.30;99.90;;;;;;5054679;28;20496;-71
2022/08/07 16:22:06;;;;;;;4.00;3.70;;;25.20;99.90;;;;;;5057134;28;20457;-71